Time;durP1;ratioP1;P1;durP2;ratioP2;P2;SDS_P1;SDS_P2;PMS_P1;PMS_P2;Temp;Humidity;BMP_temperature;BMP_pressure;BME280_temperature;BME280_humidity;BME280_pressure;Samples;Min_cycle;Max_cycle;Signal;HPM_P1;HPM_P2
2022/11/07 00:00:14;;;;;;;6.40;1.77;;;;;;;;;;524458;28;1273;-59
2022/11/07 00:00:30;;;;;;;3.72;1.83;;;;;;;;;;521084;28;1283;-59
2022/11/07 00:00:45;;;;;;;3.00;1.80;;;;;;;;;;521402;28;1147;-59
2022/11/07 00:01:07;;;;;;;4.37;1.90;;;;;;;;;;521190;28;1214;-59
2022/11/07 00:01:22;;;;;;;4.85;2.10;;;;;;;;;;522148;28;1126;-59
2022/11/07 00:01:37;;;;;;;4.23;2.17;;;;;;;;;;521345;28;1106;-59
2022/11/07 00:01:53;;;;;;;3.53;1.98;;;;;;;;;;522043;28;1941;-59
2022/11/07 00:02:08;;;;;;;3.93;1.77;;;;;;;;;;525210;28;1022;-59
2022/11/07 00:02:24;;;;;;;4.75;1.80;;;;;;;;;;522445;28;1245;-59
2022/11/07 00:02:39;;;;;;;4.73;1.73;;;;;;;;;;525301;28;1203;-59
2022/11/07 00:02:54;;;;;;;4.70;1.80;;;;;;;;;;523533;28;1065;-59
2022/11/07 00:03:10;;;;;;;4.85;1.80;;;;;;;;;;523036;28;1156;-59
2022/11/07 00:03:25;;;;;;;4.80;1.80;;;;;;;;;;521440;28;1121;-59
2022/11/07 00:03:40;;;;;;;3.53;1.80;;;;;;;;;;520997;28;1101;-59
2022/11/07 00:03:56;;;;;;;3.03;1.67;;;;;;;;;;521282;28;1175;-59
2022/11/07 00:04:11;;;;;;;3.53;1.70;;;;;;;;;;518271;28;1082;-59
2022/11/07 00:04:28;;;;;;;3.90;1.97;;;;;;;;;;521641;28;1161;-59
2022/11/07 00:04:43;;;;;;;5.13;2.17;;;;;;;;;;519473;28;1274;-59
2022/11/07 00:05:00;;;;;;;4.63;2.00;;;;;;;;;;520890;28;1133;-59
2022/11/07 00:05:15;;;;;;;4.15;1.70;;;;;;;;;;519136;28;985;-59
2022/11/07 00:05:31;;;;;;;4.57;1.80;;;;;;;;;;519487;28;1087;-60
2022/11/07 00:05:46;;;;;;;4.60;1.83;;;;;;;;;;519186;28;1301;-60
2022/11/07 00:06:01;;;;;;;4.40;1.87;;;;;;;;;;521657;28;1077;-59
2022/11/07 00:06:17;;;;;;;3.75;1.90;;;;;;;;;;522699;28;1099;-59
2022/11/07 00:06:32;;;;;;;3.13;1.80;;;;;;;;;;525711;27;1452;-59
2022/11/07 00:06:47;;;;;;;3.13;1.80;;;;;;;;;;528228;27;1151;-59
2022/11/07 00:07:03;;;;;;;3.55;1.85;;;;;;;;;;528590;27;1080;-59
2022/11/07 00:07:19;;;;;;;4.63;1.85;;;;;;;;;;525435;27;1219;-59
2022/11/07 00:07:34;;;;;;;5.53;1.90;;;;;;;;;;528141;27;1175;-60
2022/11/07 00:07:49;;;;;;;4.57;1.90;;;;;;;;;;526426;27;1284;-59
2022/11/07 00:08:04;;;;;;;4.10;1.83;;;;;;;;;;525535;27;1316;-59
2022/11/07 00:08:30;;;;;;;3.97;1.80;;;;;;;;;;526464;27;1212;-59
2022/11/07 00:08:45;;;;;;;5.00;1.80;;;;;;;;;;521603;28;1160;-59
2022/11/07 00:09:01;;;;;;;5.40;1.93;;;;;;;;;;522014;28;1157;-59
2022/11/07 00:09:16;;;;;;;4.33;1.90;;;;;;;;;;523434;28;1429;-60
2022/11/07 00:09:31;;;;;;;4.73;1.87;;;;;;;;;;521147;28;1360;-59
2022/11/07 00:09:47;;;;;;;4.47;1.88;;;;;;;;;;522289;28;1223;-59
2022/11/07 00:10:03;;;;;;;4.20;1.90;;;;;;;;;;521691;28;1298;-59
2022/11/07 00:10:18;;;;;;;4.82;1.77;;;;;;;;;;518767;28;1094;-59
2022/11/07 00:10:34;;;;;;;4.33;1.70;;;;;;;;;;521261;28;1162;-59
2022/11/07 00:10:53;;;;;;;4.77;1.80;;;;;;;;;;522262;28;1170;-59
2022/11/07 00:11:08;;;;;;;5.53;2.00;;;;;;;;;;519330;28;1673;-60
2022/11/07 00:11:23;;;;;;;4.03;1.80;;;;;;;;;;521907;28;1180;-59
2022/11/07 00:11:38;;;;;;;4.43;1.77;;;;;;;;;;522159;28;1355;-59
2022/11/07 00:11:54;;;;;;;4.53;1.87;;;;;;;;;;521617;28;1249;-59
2022/11/07 00:12:09;;;;;;;3.72;1.90;;;;;;;;;;524364;27;1163;-59
2022/11/07 00:12:25;;;;;;;3.77;2.00;;;;;;;;;;522868;28;1313;-59
2022/11/07 00:12:40;;;;;;;4.40;2.00;;;;;;;;;;524009;28;1208;-59
2022/11/07 00:12:55;;;;;;;3.67;1.83;;;;;;;;;;524144;28;1129;-59
2022/11/07 00:13:10;;;;;;;4.15;2.03;;;;;;;;;;524698;28;1313;-59
2022/11/07 00:13:27;;;;;;;4.63;2.20;;;;;;;;;;523399;28;1497;-59
2022/11/07 00:13:42;;;;;;;4.65;2.13;;;;;;;;;;523055;28;1775;-59
2022/11/07 00:13:57;;;;;;;5.18;2.00;;;;;;;;;;524253;28;1257;-59
2022/11/07 00:14:15;;;;;;;4.33;1.93;;;;;;;;;;525168;28;1231;-59
2022/11/07 00:14:31;;;;;;;4.70;1.95;;;;;;;;;;522733;28;2071;-59
2022/11/07 00:14:46;;;;;;;4.50;1.93;;;;;;;;;;521989;28;2331;-59
2022/11/07 00:15:03;;;;;;;4.13;1.90;;;;;;;;;;522271;28;1240;-59
2022/11/07 00:15:18;;;;;;;5.72;1.92;;;;;;;;;;523977;28;1201;-59
2022/11/07 00:15:34;;;;;;;5.60;1.90;;;;;;;;;;523151;28;1343;-59
2022/11/07 00:15:49;;;;;;;4.50;1.90;;;;;;;;;;523041;28;1220;-59
2022/11/07 00:16:07;;;;;;;4.70;1.90;;;;;;;;;;522999;27;1387;-59
2022/11/07 00:16:22;;;;;;;4.18;2.00;;;;;;;;;;525048;28;1184;-59
2022/11/07 00:16:38;;;;;;;5.03;1.97;;;;;;;;;;525749;27;1757;-59
2022/11/07 00:16:53;;;;;;;4.57;2.00;;;;;;;;;;525603;27;1010;-60
2022/11/07 00:17:08;;;;;;;4.03;2.00;;;;;;;;;;524241;28;1202;-59
2022/11/07 00:17:24;;;;;;;4.53;1.80;;;;;;;;;;524284;28;1184;-59
2022/11/07 00:17:39;;;;;;;4.30;1.83;;;;;;;;;;522627;28;1164;-60
2022/11/07 00:17:54;;;;;;;4.68;2.08;;;;;;;;;;525173;27;1093;-59
2022/11/07 00:18:09;;;;;;;5.43;2.10;;;;;;;;;;525824;27;1175;-59
2022/11/07 00:18:25;;;;;;;4.53;1.90;;;;;;;;;;525765;28;1124;-59
2022/11/07 00:18:40;;;;;;;3.57;1.80;;;;;;;;;;525420;27;1169;-59
2022/11/07 00:18:55;;;;;;;3.72;1.88;;;;;;;;;;525150;27;1120;-59
2022/11/07 00:19:13;;;;;;;4.10;2.10;;;;;;;;;;527422;27;1198;-59
2022/11/07 00:19:28;;;;;;;4.15;2.10;;;;;;;;;;524688;28;1085;-59
2022/11/07 00:19:43;;;;;;;4.47;2.00;;;;;;;;;;526269;27;1085;-59
2022/11/07 00:19:59;;;;;;;4.23;2.00;;;;;;;;;;523639;28;1246;-59
2022/11/07 00:20:14;;;;;;;4.20;2.00;;;;;;;;;;524395;28;1231;-59
2022/11/07 00:20:29;;;;;;;3.80;1.95;;;;;;;;;;523942;28;1022;-59
2022/11/07 00:20:44;;;;;;;3.10;1.90;;;;;;;;;;524696;28;1466;-59
2022/11/07 00:21:01;;;;;;;3.87;1.90;;;;;;;;;;522748;28;1021;-59
2022/11/07 00:21:17;;;;;;;5.38;2.00;;;;;;;;;;525960;28;1183;-59
2022/11/07 00:21:32;;;;;;;5.00;2.00;;;;;;;;;;524747;28;1162;-59
2022/11/07 00:21:48;;;;;;;5.00;2.10;;;;;;;;;;525720;28;1149;-59
2022/11/07 00:22:03;;;;;;;5.90;2.20;;;;;;;;;;525562;27;1989;-59
2022/11/07 00:22:19;;;;;;;5.40;2.10;;;;;;;;;;525888;28;1157;-59
2022/11/07 00:22:34;;;;;;;4.32;2.00;;;;;;;;;;524761;28;1219;-60
2022/11/07 00:22:49;;;;;;;4.07;1.97;;;;;;;;;;525512;27;1401;-59
2022/11/07 00:23:05;;;;;;;4.37;2.07;;;;;;;;;;524891;28;1303;-59
2022/11/07 00:23:20;;;;;;;4.43;2.20;;;;;;;;;;523364;28;1112;-60
2022/11/07 00:23:38;;;;;;;4.03;2.10;;;;;;;;;;517838;28;1395;-59
2022/11/07 00:23:54;;;;;;;5.07;2.10;;;;;;;;;;519905;28;1149;-59
2022/11/07 00:24:24;;;;;;;4.47;1.90;;;;;;;;;;334779;28;10000877;-59
2022/11/07 00:24:40;;;;;;;4.60;2.05;;;;;;;;;;171964;28;10001202;-59
2022/11/07 00:24:56;;;;;;;4.43;2.10;;;;;;;;;;519932;28;1960;-59
2022/11/07 00:25:11;;;;;;;4.38;2.15;;;;;;;;;;521885;28;1325;-59
2022/11/07 00:25:26;;;;;;;4.00;2.07;;;;;;;;;;523589;28;1198;-59
2022/11/07 00:25:41;;;;;;;3.87;2.10;;;;;;;;;;523094;28;1291;-59
2022/11/07 00:26:04;;;;;;;4.30;2.10;;;;;;;;;;523731;28;1386;-60
2022/11/07 00:26:20;;;;;;;5.25;2.20;;;;;;;;;;520383;28;2207;-59
2022/11/07 00:26:36;;;;;;;6.00;2.22;;;;;;;;;;521708;28;1438;-59
2022/11/07 00:26:51;;;;;;;6.07;2.10;;;;;;;;;;522992;28;1251;-59
2022/11/07 00:27:06;;;;;;;5.53;2.20;;;;;;;;;;522981;28;986;-59
2022/11/07 00:27:21;;;;;;;4.97;2.17;;;;;;;;;;519857;28;1232;-59
2022/11/07 00:27:37;;;;;;;3.83;1.90;;;;;;;;;;522608;28;1133;-59
2022/11/07 00:27:52;;;;;;;3.97;1.90;;;;;;;;;;522618;28;1425;-59
2022/11/07 00:28:07;;;;;;;4.73;2.20;;;;;;;;;;524300;28;1384;-59
2022/11/07 00:28:22;;;;;;;4.90;2.30;;;;;;;;;;523035;28;1172;-59
2022/11/07 00:28:40;;;;;;;6.50;2.28;;;;;;;;;;520845;28;1523;-59
2022/11/07 00:28:55;;;;;;;6.40;2.33;;;;;;;;;;522619;28;1132;-59
2022/11/07 00:29:16;;;;;;;5.25;2.15;;;;;;;;;;520316;28;1190;-59
2022/11/07 00:29:31;;;;;;;5.50;2.30;;;;;;;;;;520642;28;1126;-59
2022/11/07 00:29:47;;;;;;;7.05;2.47;;;;;;;;;;521246;28;1085;-59
2022/11/07 00:30:02;;;;;;;6.83;2.10;;;;;;;;;;521485;28;1561;-60
2022/11/07 00:30:17;;;;;;;6.23;2.10;;;;;;;;;;522117;28;1403;-60
2022/11/07 00:30:33;;;;;;;4.53;2.10;;;;;;;;;;521193;28;1239;-59
2022/11/07 00:30:48;;;;;;;3.27;1.97;;;;;;;;;;522191;28;1074;-59
2022/11/07 00:31:05;;;;;;;3.30;1.80;;;;;;;;;;524608;28;1212;-59
2022/11/07 00:31:20;;;;;;;4.47;1.98;;;;;;;;;;524731;27;1048;-59
2022/11/07 00:31:35;;;;;;;4.73;2.13;;;;;;;;;;524512;28;1356;-59
2022/11/07 00:31:50;;;;;;;3.85;2.10;;;;;;;;;;524433;28;1129;-59
2022/11/07 00:32:06;;;;;;;4.43;2.23;;;;;;;;;;523975;28;1420;-59
2022/11/07 00:32:21;;;;;;;4.50;2.20;;;;;;;;;;524260;28;1231;-59
2022/11/07 00:32:36;;;;;;;3.53;2.10;;;;;;;;;;526468;27;1328;-59
2022/11/07 00:32:51;;;;;;;4.28;2.17;;;;;;;;;;527306;27;1140;-59
2022/11/07 00:33:07;;;;;;;4.93;2.20;;;;;;;;;;527629;27;1159;-59
2022/11/07 00:33:22;;;;;;;4.00;2.20;;;;;;;;;;525804;28;1136;-59
2022/11/07 00:33:37;;;;;;;3.43;2.10;;;;;;;;;;525676;27;957;-59
2022/11/07 00:33:53;;;;;;;3.75;1.92;;;;;;;;;;524493;28;1405;-59
2022/11/07 00:34:08;;;;;;;5.10;2.20;;;;;;;;;;521621;28;1081;-60
2022/11/07 00:34:23;;;;;;;4.90;2.27;;;;;;;;;;523196;28;1144;-59
2022/11/07 00:34:38;;;;;;;4.05;2.20;;;;;;;;;;522323;28;1342;-59
2022/11/07 00:34:54;;;;;;;5.03;2.20;;;;;;;;;;524049;28;1189;-59
2022/11/07 00:35:09;;;;;;;4.93;2.17;;;;;;;;;;522996;28;1228;-59
2022/11/07 00:35:24;;;;;;;5.50;2.10;;;;;;;;;;523197;28;1106;-59
2022/11/07 00:35:41;;;;;;;5.80;2.00;;;;;;;;;;523320;28;1165;-59
2022/11/07 00:35:56;;;;;;;5.50;2.20;;;;;;;;;;524192;28;1139;-59
2022/11/07 00:36:23;;;;;;;5.10;2.25;;;;;;;;;;526128;27;1163;-59
2022/11/07 00:36:39;;;;;;;6.35;2.20;;;;;;;;;;526672;27;1249;-59
2022/11/07 00:36:54;;;;;;;6.53;2.17;;;;;;;;;;525764;27;1153;-59
2022/11/07 00:37:09;;;;;;;5.57;2.28;;;;;;;;;;524410;28;1181;-59
2022/11/07 00:37:25;;;;;;;5.47;2.27;;;;;;;;;;525496;27;1069;-59
2022/11/07 00:37:40;;;;;;;5.53;2.20;;;;;;;;;;524928;28;1571;-59
2022/11/07 00:37:55;;;;;;;5.28;2.35;;;;;;;;;;524390;28;1211;-59
2022/11/07 00:38:11;;;;;;;5.17;2.30;;;;;;;;;;523182;28;1206;-59
2022/11/07 00:38:26;;;;;;;4.60;2.20;;;;;;;;;;517810;28;1208;-59
2022/11/07 00:38:41;;;;;;;4.68;2.17;;;;;;;;;;521073;28;1081;-59
2022/11/07 00:38:57;;;;;;;5.97;2.20;;;;;;;;;;520335;28;1331;-59
2022/11/07 00:39:12;;;;;;;6.20;2.40;;;;;;;;;;520387;28;1074;-59
2022/11/07 00:39:28;;;;;;;6.03;2.50;;;;;;;;;;520663;28;1236;-59
2022/11/07 00:39:43;;;;;;;5.83;2.40;;;;;;;;;;518649;28;1167;-59
2022/11/07 00:39:58;;;;;;;5.25;2.25;;;;;;;;;;519935;28;1228;-59
2022/11/07 00:40:14;;;;;;;5.93;2.20;;;;;;;;;;520574;28;1022;-59
2022/11/07 00:40:29;;;;;;;6.40;2.33;;;;;;;;;;521350;28;1106;-59
2022/11/07 00:40:56;;;;;;;5.68;2.47;;;;;;;;;;519173;28;1082;-59
2022/11/07 00:41:12;;;;;;;6.07;2.40;;;;;;;;;;523855;28;1275;-59
2022/11/07 00:41:27;;;;;;;6.07;2.30;;;;;;;;;;523603;28;1164;-59
2022/11/07 00:41:46;;;;;;;6.75;2.25;;;;;;;;;;525363;28;1223;-59
2022/11/07 00:42:01;;;;;;;6.00;2.33;;;;;;;;;;525496;27;1963;-59
2022/11/07 00:42:16;;;;;;;6.55;2.60;;;;;;;;;;524251;28;1396;-59
2022/11/07 00:42:31;;;;;;;6.07;2.53;;;;;;;;;;525793;28;1310;-59
2022/11/07 00:42:47;;;;;;;4.90;2.30;;;;;;;;;;525228;28;1132;-59
2022/11/07 00:43:02;;;;;;;5.13;2.20;;;;;;;;;;519831;28;1432;-59
2022/11/07 00:43:17;;;;;;;4.45;2.30;;;;;;;;;;522841;28;990;-59
2022/11/07 00:43:33;;;;;;;4.03;2.30;;;;;;;;;;521023;28;1235;-59
2022/11/07 00:43:48;;;;;;;4.80;2.40;;;;;;;;;;518606;28;1422;-59
2022/11/07 00:44:03;;;;;;;4.28;2.30;;;;;;;;;;520562;28;1121;-59
2022/11/07 00:44:19;;;;;;;4.87;2.30;;;;;;;;;;519754;28;1010;-59
2022/11/07 00:44:34;;;;;;;5.30;2.43;;;;;;;;;;521008;28;1173;-59
2022/11/07 00:44:49;;;;;;;5.55;2.40;;;;;;;;;;521272;28;1086;-59
2022/11/07 00:45:05;;;;;;;6.37;2.40;;;;;;;;;;523403;28;1173;-59
2022/11/07 00:45:21;;;;;;;4.88;2.40;;;;;;;;;;519984;28;1476;-59
2022/11/07 00:45:36;;;;;;;3.77;2.23;;;;;;;;;;521024;28;1002;-59
2022/11/07 00:45:51;;;;;;;4.43;2.30;;;;;;;;;;525096;28;1160;-59
2022/11/07 00:46:09;;;;;;;4.37;2.33;;;;;;;;;;525222;28;1215;-59
2022/11/07 00:46:24;;;;;;;4.45;2.20;;;;;;;;;;521438;28;1394;-60
2022/11/07 00:46:39;;;;;;;5.10;2.30;;;;;;;;;;522181;28;1438;-59
2022/11/07 00:46:54;;;;;;;6.03;2.37;;;;;;;;;;522973;28;1251;-59
2022/11/07 00:47:10;;;;;;;6.00;2.30;;;;;;;;;;522988;28;1085;-59
2022/11/07 00:47:25;;;;;;;5.22;2.35;;;;;;;;;;523527;28;1184;-59
2022/11/07 00:47:40;;;;;;;5.30;2.40;;;;;;;;;;522514;28;1096;-59
2022/11/07 00:47:56;;;;;;;4.70;2.23;;;;;;;;;;522239;28;1317;-59
2022/11/07 00:48:11;;;;;;;5.10;2.30;;;;;;;;;;519955;28;1238;-59
2022/11/07 00:48:26;;;;;;;5.65;2.20;;;;;;;;;;521088;28;1101;-59
2022/11/07 00:48:42;;;;;;;5.60;2.27;;;;;;;;;;519161;28;1312;-59
2022/11/07 00:48:57;;;;;;;5.85;2.35;;;;;;;;;;517963;28;1227;-59
2022/11/07 00:49:12;;;;;;;5.70;2.30;;;;;;;;;;521644;28;1145;-59
2022/11/07 00:49:28;;;;;;;5.70;2.30;;;;;;;;;;517967;28;1160;-59
2022/11/07 00:49:43;;;;;;;6.30;2.20;;;;;;;;;;517874;28;1186;-59
2022/11/07 00:49:58;;;;;;;5.73;2.20;;;;;;;;;;520984;28;1294;-60
2022/11/07 00:50:14;;;;;;;4.27;2.17;;;;;;;;;;522156;28;1036;-59
2022/11/07 00:50:30;;;;;;;4.35;2.30;;;;;;;;;;522437;28;1252;-59
2022/11/07 00:50:46;;;;;;;5.60;2.58;;;;;;;;;;523117;28;1238;-59
2022/11/07 00:51:05;;;;;;;6.68;2.53;;;;;;;;;;522481;28;1341;-59
2022/11/07 00:51:23;;;;;;;5.43;2.40;;;;;;;;;;522085;28;1123;-59
2022/11/07 00:51:38;;;;;;;4.95;2.40;;;;;;;;;;521096;28;1439;-59
2022/11/07 00:51:54;;;;;;;5.57;2.33;;;;;;;;;;521130;28;997;-59
2022/11/07 00:52:09;;;;;;;4.93;2.30;;;;;;;;;;522744;28;1136;-59
2022/11/07 00:52:24;;;;;;;4.37;2.20;;;;;;;;;;523268;28;1384;-59
2022/11/07 00:52:39;;;;;;;4.63;2.30;;;;;;;;;;524325;28;1192;-59
2022/11/07 00:52:56;;;;;;;6.50;2.33;;;;;;;;;;525936;28;1121;-58
2022/11/07 00:53:11;;;;;;;6.32;2.30;;;;;;;;;;523503;28;1368;-59
2022/11/07 00:53:26;;;;;;;4.70;2.20;;;;;;;;;;524721;28;1144;-59
2022/11/07 00:53:42;;;;;;;5.57;2.30;;;;;;;;;;521640;28;1188;-59
2022/11/07 00:53:57;;;;;;;7.05;2.47;;;;;;;;;;525356;28;1081;-58
2022/11/07 00:54:12;;;;;;;6.50;2.50;;;;;;;;;;523494;28;1164;-59
2022/11/07 00:54:28;;;;;;;5.22;2.28;;;;;;;;;;524168;28;1133;-59
2022/11/07 00:54:43;;;;;;;4.17;2.10;;;;;;;;;;522465;28;1196;-59
2022/11/07 00:54:58;;;;;;;5.93;2.30;;;;;;;;;;523369;28;2132;-58
2022/11/07 00:55:13;;;;;;;6.30;2.43;;;;;;;;;;523236;28;1129;-59
2022/11/07 00:55:31;;;;;;;5.40;2.58;;;;;;;;;;523892;28;1053;-58
2022/11/07 00:55:46;;;;;;;6.88;2.80;;;;;;;;;;521323;28;1545;-59
2022/11/07 00:56:03;;;;;;;7.70;2.53;;;;;;;;;;521967;28;1179;-58
2022/11/07 00:56:22;;;;;;;7.03;2.50;;;;;;;;;;522002;28;1128;-59
2022/11/07 00:56:37;;;;;;;5.85;2.30;;;;;;;;;;522205;28;1230;-59
2022/11/07 00:56:52;;;;;;;5.13;2.20;;;;;;;;;;523563;28;1172;-59
2022/11/07 00:57:07;;;;;;;6.13;2.30;;;;;;;;;;520801;28;1325;-59
2022/11/07 00:57:23;;;;;;;6.25;2.35;;;;;;;;;;522454;28;1225;-59
2022/11/07 00:57:38;;;;;;;6.10;2.37;;;;;;;;;;521286;28;1102;-59
2022/11/07 00:57:54;;;;;;;5.40;2.37;;;;;;;;;;523530;28;1179;-59
2022/11/07 00:58:09;;;;;;;4.93;2.33;;;;;;;;;;522415;28;1122;-59
2022/11/07 00:58:25;;;;;;;4.68;2.28;;;;;;;;;;521004;28;1041;-58
2022/11/07 00:58:41;;;;;;;5.10;2.40;;;;;;;;;;522342;28;1142;-58
2022/11/07 00:58:58;;;;;;;5.43;2.50;;;;;;;;;;521506;28;1752;-59
2022/11/07 00:59:13;;;;;;;4.80;2.35;;;;;;;;;;523571;28;1058;-59
2022/11/07 00:59:28;;;;;;;5.90;2.37;;;;;;;;;;524356;28;1040;-59
2022/11/07 00:59:43;;;;;;;6.30;2.30;;;;;;;;;;524198;28;1208;-59
2022/11/07 00:59:58;;;;;;;5.28;2.20;;;;;;;;;;523587;28;1171;-58
2022/11/07 01:00:14;;;;;;;5.10;2.30;;;;;;;;;;525485;28;1084;-59
2022/11/07 01:00:29;;;;;;;6.00;2.30;;;;;;;;;;522243;28;1182;-59
2022/11/07 01:00:44;;;;;;;6.13;2.30;;;;;;;;;;523471;28;1174;-59
2022/11/07 01:01:25;;;;;;;6.30;2.33;;;;;;;;;;521613;28;1216;-59
2022/11/07 01:01:41;;;;;;;4.50;2.10;;;;;;;;;;521316;28;1137;-58
2022/11/07 01:01:56;;;;;;;6.10;2.27;;;;;;;;;;521550;28;1942;-59
2022/11/07 01:02:11;;;;;;;6.63;2.37;;;;;;;;;;522893;28;1005;-58
2022/11/07 01:02:27;;;;;;;5.68;2.28;;;;;;;;;;521716;28;1121;-59
2022/11/07 01:02:42;;;;;;;5.57;2.30;;;;;;;;;;524232;28;1101;-59
2022/11/07 01:05:13;;;;;;;3.75;2.00;;;;;;;;;;524198;28;943;-58
2022/11/07 01:05:28;;;;;;;4.65;2.20;;;;;;;;;;523594;28;1613;-59
2022/11/07 01:05:54;;;;;;;5.77;2.20;;;;;;;;;;523290;28;1144;-59
2022/11/07 01:06:11;;;;;;;5.53;2.38;;;;;;;;;;522934;28;1182;-59
2022/11/07 01:06:27;;;;;;;4.45;2.30;;;;;;;;;;522010;28;1141;-59
2022/11/07 01:06:44;;;;;;;4.55;2.00;;;;;;;;;;524497;28;1125;-59
2022/11/07 01:07:00;;;;;;;7.30;2.50;;;;;;;;;;523272;28;1690;-59
2022/11/07 01:07:16;;;;;;;6.00;2.53;;;;;;;;;;522109;28;1620;-58
2022/11/07 01:07:34;;;;;;;6.60;2.40;;;;;;;;;;523326;28;998;-59
2022/11/07 01:07:49;;;;;;;6.53;2.25;;;;;;;;;;521217;28;1286;-58
2022/11/07 01:08:05;;;;;;;5.53;2.20;;;;;;;;;;519169;28;1206;-59
2022/11/07 01:08:20;;;;;;;6.17;2.30;;;;;;;;;;520432;28;1195;-58
2022/11/07 01:08:35;;;;;;;6.43;2.40;;;;;;;;;;519852;28;1264;-59
2022/11/07 01:08:53;;;;;;;5.50;2.37;;;;;;;;;;521498;28;1130;-59
2022/11/07 01:09:19;;;;;;;5.55;2.50;;;;;;;;;;520950;28;1312;-59
2022/11/07 01:09:35;;;;;;;6.93;2.40;;;;;;;;;;520981;28;1206;-59
2022/11/07 01:09:50;;;;;;;5.70;2.40;;;;;;;;;;522965;28;1445;-58
2022/11/07 01:10:06;;;;;;;5.13;2.38;;;;;;;;;;524603;28;1137;-59
2022/11/07 01:10:21;;;;;;;5.03;2.38;;;;;;;;;;522265;28;1092;-59
2022/11/07 01:10:40;;;;;;;5.07;2.40;;;;;;;;;;522800;28;967;-59
2022/11/07 01:10:56;;;;;;;5.90;2.45;;;;;;;;;;524102;28;1098;-59
2022/11/07 01:11:12;;;;;;;6.63;2.40;;;;;;;;;;523090;28;1173;-59
2022/11/07 01:11:28;;;;;;;6.60;2.53;;;;;;;;;;519877;28;1336;-59
2022/11/07 01:11:45;;;;;;;6.90;2.63;;;;;;;;;;521792;28;1117;-59
2022/11/07 01:12:00;;;;;;;5.50;2.40;;;;;;;;;;522789;28;1136;-59
2022/11/07 01:12:16;;;;;;;4.70;2.23;;;;;;;;;;518025;28;2206;-59
2022/11/07 01:12:33;;;;;;;6.17;2.40;;;;;;;;;;521017;28;2170;-59
2022/11/07 01:12:48;;;;;;;6.50;2.45;;;;;;;;;;522149;28;1097;-59
2022/11/07 01:13:03;;;;;;;6.07;2.50;;;;;;;;;;524075;28;1081;-59
2022/11/07 01:13:19;;;;;;;5.73;2.47;;;;;;;;;;522584;28;1181;-59
2022/11/07 01:13:34;;;;;;;6.50;2.40;;;;;;;;;;524094;28;1341;-59
2022/11/07 01:13:54;;;;;;;5.90;2.40;;;;;;;;;;523737;28;1074;-59
2022/11/07 01:14:10;;;;;;;5.43;2.40;;;;;;;;;;522732;28;1092;-59
2022/11/07 01:14:26;;;;;;;7.10;2.30;;;;;;;;;;523580;28;1002;-59
2022/11/07 01:14:41;;;;;;;7.23;2.30;;;;;;;;;;523665;28;1529;-58
2022/11/07 01:14:56;;;;;;;5.72;2.35;;;;;;;;;;524027;28;1078;-59
2022/11/07 01:15:11;;;;;;;6.27;2.30;;;;;;;;;;523703;28;1172;-59
2022/11/07 01:15:27;;;;;;;6.27;2.30;;;;;;;;;;522808;28;1013;-59
2022/11/07 01:15:42;;;;;;;6.38;2.35;;;;;;;;;;523042;28;1475;-59
2022/11/07 01:15:57;;;;;;;7.60;2.30;;;;;;;;;;523682;28;1125;-59
2022/11/07 01:16:13;;;;;;;7.47;2.30;;;;;;;;;;525790;27;1069;-58
2022/11/07 01:16:29;;;;;;;5.93;2.38;;;;;;;;;;523740;28;1238;-59
2022/11/07 01:16:45;;;;;;;5.32;2.40;;;;;;;;;;523347;28;1640;-59
2022/11/07 01:17:00;;;;;;;6.10;2.40;;;;;;;;;;523401;28;1547;-59
2022/11/07 01:17:16;;;;;;;6.80;2.40;;;;;;;;;;525239;28;1126;-59
2022/11/07 01:17:31;;;;;;;6.30;2.50;;;;;;;;;;521510;28;1180;-59
2022/11/07 01:17:46;;;;;;;5.03;2.33;;;;;;;;;;523069;28;1231;-60
2022/11/07 01:18:01;;;;;;;4.30;2.20;;;;;;;;;;523241;28;1124;-59
2022/11/07 01:18:17;;;;;;;5.10;2.20;;;;;;;;;;524011;28;1211;-59
2022/11/07 01:18:32;;;;;;;6.50;2.38;;;;;;;;;;525662;28;1014;-59
2022/11/07 01:18:47;;;;;;;7.73;2.53;;;;;;;;;;519015;28;1570;-59
2022/11/07 01:19:04;;;;;;;7.60;2.70;;;;;;;;;;521959;28;1125;-59
2022/11/07 01:19:19;;;;;;;6.25;2.58;;;;;;;;;;518014;28;1635;-59
2022/11/07 01:19:34;;;;;;;6.03;2.30;;;;;;;;;;518742;28;1388;-59
2022/11/07 01:19:50;;;;;;;6.43;2.13;;;;;;;;;;515323;28;1068;-59
2022/11/07 01:20:06;;;;;;;4.85;2.10;;;;;;;;;;518515;28;1178;-59
2022/11/07 01:20:21;;;;;;;5.97;2.47;;;;;;;;;;521525;28;1169;-59
2022/11/07 01:20:36;;;;;;;7.10;2.40;;;;;;;;;;520116;28;1150;-59
2022/11/07 01:20:52;;;;;;;5.60;2.13;;;;;;;;;;518884;28;1326;-59
2022/11/07 01:21:08;;;;;;;5.63;2.37;;;;;;;;;;523312;28;1464;-59
2022/11/07 01:21:23;;;;;;;5.75;2.42;;;;;;;;;;524983;28;1141;-59
2022/11/07 01:21:40;;;;;;;5.07;2.20;;;;;;;;;;525868;28;1101;-59
2022/11/07 01:21:55;;;;;;;5.65;2.50;;;;;;;;;;522252;28;1918;-59
2022/11/07 01:22:11;;;;;;;6.77;2.50;;;;;;;;;;523323;28;1335;-59
2022/11/07 01:22:26;;;;;;;5.95;2.30;;;;;;;;;;520209;28;1200;-59
2022/11/07 01:22:41;;;;;;;6.10;2.40;;;;;;;;;;519120;28;1199;-59
2022/11/07 01:22:56;;;;;;;5.80;2.37;;;;;;;;;;518516;28;1249;-59
2022/11/07 01:23:12;;;;;;;5.43;2.25;;;;;;;;;;519488;28;1139;-59
2022/11/07 01:23:27;;;;;;;5.63;2.30;;;;;;;;;;519161;28;1185;-60
2022/11/07 01:23:42;;;;;;;5.20;2.20;;;;;;;;;;518335;28;1127;-59
2022/11/07 01:23:59;;;;;;;6.57;2.30;;;;;;;;;;522831;28;1125;-59
2022/11/07 01:24:15;;;;;;;6.55;2.30;;;;;;;;;;522860;28;1555;-59
2022/11/07 01:24:30;;;;;;;4.60;2.22;;;;;;;;;;523627;28;1205;-59
2022/11/07 01:24:46;;;;;;;5.43;2.30;;;;;;;;;;525174;28;1211;-59
2022/11/07 01:25:01;;;;;;;5.47;2.30;;;;;;;;;;524571;27;1144;-59
2022/11/07 01:25:17;;;;;;;5.80;2.20;;;;;;;;;;522972;28;1318;-59
2022/11/07 01:25:32;;;;;;;4.57;2.13;;;;;;;;;;525880;28;1164;-59
2022/11/07 01:25:47;;;;;;;4.47;2.03;;;;;;;;;;527450;27;1214;-59
2022/11/07 01:26:08;;;;;;;6.72;2.28;;;;;;;;;;526206;27;1052;-59
2022/11/07 01:26:23;;;;;;;6.30;2.47;;;;;;;;;;524430;28;1176;-59
2022/11/07 01:26:39;;;;;;;5.00;2.40;;;;;;;;;;523697;28;1209;-59
2022/11/07 01:26:55;;;;;;;5.95;2.22;;;;;;;;;;521958;28;1272;-60
2022/11/07 01:27:10;;;;;;;9.07;2.40;;;;;;;;;;521877;28;1185;-59
2022/11/07 01:27:25;;;;;;;9.23;2.50;;;;;;;;;;521393;28;1118;-59
2022/11/07 01:27:40;;;;;;;7.65;2.40;;;;;;;;;;522283;28;1699;-59
2022/11/07 01:27:56;;;;;;;7.27;2.50;;;;;;;;;;521908;28;1222;-59
2022/11/07 01:28:11;;;;;;;6.70;2.70;;;;;;;;;;518864;28;1304;-59
2022/11/07 01:28:26;;;;;;;5.60;2.50;;;;;;;;;;518348;28;1257;-59
2022/11/07 01:28:42;;;;;;;5.80;2.30;;;;;;;;;;521041;28;1104;-59
2022/11/07 01:28:57;;;;;;;6.43;2.37;;;;;;;;;;519177;28;1303;-59
2022/11/07 01:29:13;;;;;;;5.00;2.30;;;;;;;;;;518829;28;1262;-59
2022/11/07 01:29:29;;;;;;;5.05;2.40;;;;;;;;;;515897;28;1375;-59
2022/11/07 01:29:44;;;;;;;4.87;2.33;;;;;;;;;;518347;28;1448;-59
2022/11/07 01:29:59;;;;;;;6.50;2.30;;;;;;;;;;518258;28;1125;-59
2022/11/07 01:30:14;;;;;;;6.72;2.40;;;;;;;;;;519111;28;1201;-59
2022/11/07 01:30:30;;;;;;;6.00;2.17;;;;;;;;;;518388;28;1216;-59
2022/11/07 01:30:45;;;;;;;6.83;2.20;;;;;;;;;;518571;28;1308;-59
2022/11/07 01:31:09;;;;;;;6.37;2.37;;;;;;;;;;517723;28;1278;-59
2022/11/07 01:31:25;;;;;;;5.70;2.38;;;;;;;;;;520461;28;1319;-59
2022/11/07 01:31:41;;;;;;;5.55;2.20;;;;;;;;;;521066;28;1282;-59
2022/11/07 01:31:56;;;;;;;6.13;2.17;;;;;;;;;;520504;28;1110;-59
2022/11/07 01:32:11;;;;;;;6.65;2.20;;;;;;;;;;521602;28;1201;-59
2022/11/07 01:32:27;;;;;;;5.47;2.20;;;;;;;;;;520189;28;1231;-59
2022/11/07 01:32:42;;;;;;;6.30;2.20;;;;;;;;;;522640;28;1240;-59
2022/11/07 01:32:57;;;;;;;6.80;2.30;;;;;;;;;;521562;28;1180;-59
2022/11/07 01:33:14;;;;;;;6.25;2.30;;;;;;;;;;521720;28;1063;-59
2022/11/07 01:33:29;;;;;;;7.13;2.33;;;;;;;;;;522893;28;1133;-59
2022/11/07 01:33:45;;;;;;;6.28;2.28;;;;;;;;;;523215;28;1137;-59
2022/11/07 01:34:01;;;;;;;6.60;2.22;;;;;;;;;;522902;28;1342;-60
2022/11/07 01:34:17;;;;;;;6.93;2.40;;;;;;;;;;522418;28;1391;-59
2022/11/07 01:34:32;;;;;;;6.32;2.47;;;;;;;;;;522160;28;1336;-59
2022/11/07 01:34:47;;;;;;;5.40;2.20;;;;;;;;;;524885;28;1233;-59
2022/11/07 01:35:03;;;;;;;6.20;2.23;;;;;;;;;;524374;28;1237;-59
2022/11/07 01:35:18;;;;;;;5.93;2.30;;;;;;;;;;523683;28;1132;-59
2022/11/07 01:35:34;;;;;;;6.23;2.30;;;;;;;;;;523552;28;1093;-59
2022/11/07 01:35:49;;;;;;;6.30;2.30;;;;;;;;;;522851;28;1013;-59
2022/11/07 01:36:10;;;;;;;5.40;2.20;;;;;;;;;;523411;28;1220;-59
2022/11/07 01:36:26;;;;;;;4.80;2.28;;;;;;;;;;520661;28;1273;-59
2022/11/07 01:36:42;;;;;;;6.05;2.40;;;;;;;;;;520796;28;1117;-59
2022/11/07 01:36:57;;;;;;;6.25;2.50;;;;;;;;;;520062;28;1251;-59
2022/11/07 01:37:13;;;;;;;6.20;2.43;;;;;;;;;;521307;28;1165;-59
2022/11/07 01:37:28;;;;;;;7.00;2.47;;;;;;;;;;520441;28;1066;-60
2022/11/07 01:37:43;;;;;;;6.35;2.28;;;;;;;;;;521050;28;1003;-59
2022/11/07 01:37:58;;;;;;;5.60;2.10;;;;;;;;;;521185;28;1381;-60
2022/11/07 01:38:14;;;;;;;5.43;2.20;;;;;;;;;;524633;28;1442;-59
2022/11/07 01:38:29;;;;;;;4.17;2.03;;;;;;;;;;524716;28;2108;-59
2022/11/07 01:38:49;;;;;;;5.23;2.13;;;;;;;;;;523521;28;1038;-59
2022/11/07 01:39:05;;;;;;;6.38;2.03;;;;;;;;;;522830;28;1077;-59
2022/11/07 01:39:20;;;;;;;6.18;2.10;;;;;;;;;;523625;28;1168;-59
2022/11/07 01:39:35;;;;;;;5.67;2.20;;;;;;;;;;522610;28;1117;-59
2022/11/07 01:39:51;;;;;;;6.07;2.30;;;;;;;;;;523500;28;1113;-59
2022/11/07 01:40:07;;;;;;;5.75;2.33;;;;;;;;;;520852;28;1293;-59
2022/11/07 01:40:22;;;;;;;4.67;2.03;;;;;;;;;;521875;28;1075;-59
2022/11/07 01:41:20;;;;;;;7.35;2.28;;;;;;;;;;519937;28;1120;-59
2022/11/07 01:41:36;;;;;;;6.63;2.13;;;;;;;;;;520322;28;1412;-59